createdAt,value
2017-01-31T00:02:11.806Z,58.81
2017-01-31T00:04:22.238Z,58.83
2017-01-31T00:06:34.617Z,58.82
2017-01-31T00:08:42.013Z,58.77
2017-01-31T00:10:49.383Z,58.76
2017-01-31T00:13:02.050Z,58.76
2017-01-31T00:15:14.961Z,58.77
2017-01-31T00:17:27.267Z,58.8
2017-01-31T00:19:39.598Z,58.84
2017-01-31T00:21:52.007Z,58.86
2017-01-31T00:24:04.164Z,58.84
2017-01-31T00:26:16.670Z,58.8
2017-01-31T00:28:29.023Z,58.8
2017-01-31T00:30:36.246Z,58.83
2017-01-31T00:32:48.550Z,58.84
2017-01-31T00:35:00.803Z,58.85
2017-01-31T00:37:13.073Z,58.86
2017-01-31T00:39:25.430Z,58.89
2017-01-31T00:41:32.630Z,58.91
2017-01-31T00:43:39.741Z,58.93
2017-01-31T00:45:51.927Z,58.94
2017-01-31T00:48:04.272Z,59
2017-01-31T00:50:16.764Z,58.99
2017-01-31T00:52:24.094Z,58.97
2017-01-31T00:54:36.331Z,58.98
2017-01-31T00:56:48.740Z,58.98
2017-01-31T00:58:55.923Z,58.99
2017-01-31T01:01:08.180Z,59
2017-01-31T01:03:20.537Z,59
2017-01-31T01:05:31.175Z,59.02
2017-01-31T01:07:43.461Z,59.04
2017-01-31T01:09:55.864Z,59.06
2017-01-31T01:12:08.199Z,59.08
2017-01-31T01:14:20.407Z,59.06
2017-01-31T01:16:22.584Z,59.06
2017-01-31T01:18:34.933Z,59.08
2017-01-31T01:20:45.391Z,59.06
2017-01-31T01:22:58.145Z,59.08
2017-01-31T01:25:10.775Z,59.07
2017-01-31T01:27:22.935Z,59.07
2017-01-31T01:29:35.111Z,59.1
2017-01-31T01:31:47.283Z,59.11
2017-01-31T01:33:59.523Z,59.12
2017-01-31T01:36:11.735Z,59.12
2017-01-31T01:38:24.009Z,59.1
2017-01-31T01:40:36.252Z,59.1
2017-01-31T01:42:48.507Z,59.12
2017-01-31T01:45:00.822Z,59.16
2017-01-31T01:47:12.972Z,59.2
2017-01-31T01:49:25.464Z,59.21
2017-01-31T01:51:32.876Z,59.24
2017-01-31T01:53:45.120Z,59.25
2017-01-31T01:55:57.255Z,59.22
2017-01-31T01:58:09.944Z,59.23
2017-01-31T02:00:17.379Z,59.25
2017-01-31T02:02:29.679Z,59.24
2017-01-31T02:04:41.939Z,59.26
2017-01-31T02:06:49.280Z,59.25
2017-01-31T02:08:56.471Z,59.25
2017-01-31T02:11:03.905Z,59.29
2017-01-31T02:13:16.317Z,59.29
2017-01-31T02:15:23.473Z,59.28
2017-01-31T02:17:33.897Z,59.27
2017-01-31T02:19:46.283Z,59.27
2017-01-31T02:21:58.708Z,59.28
2017-01-31T02:24:05.983Z,59.29
2017-01-31T02:26:13.157Z,59.31
2017-01-31T02:28:20.361Z,59.31
2017-01-31T02:30:32.638Z,59.34
2017-01-31T02:32:45.285Z,59.35
2017-01-31T02:34:52.939Z,59.4
2017-01-31T02:37:05.510Z,59.44
2017-01-31T02:39:17.921Z,59.45
2017-01-31T02:41:28.412Z,59.46
2017-01-31T02:43:40.838Z,59.46
2017-01-31T02:45:53.207Z,59.49
2017-01-31T02:48:05.444Z,59.52
2017-01-31T02:50:17.760Z,59.57
2017-01-31T02:52:24.977Z,59.58
2017-01-31T02:54:37.127Z,59.6
2017-01-31T02:56:49.337Z,59.61
2017-01-31T02:59:01.597Z,59.57
2017-01-31T03:01:13.952Z,59.6
2017-01-31T03:03:26.133Z,59.63
2017-01-31T03:05:38.340Z,59.59
2017-01-31T03:07:50.814Z,59.63
2017-01-31T03:10:03.282Z,59.63
2017-01-31T03:12:15.730Z,59.65
2017-01-31T03:14:28.001Z,59.68
2017-01-31T03:16:40.331Z,59.71
2017-01-31T03:18:52.674Z,59.73
2017-01-31T03:21:04.838Z,59.76
2017-01-31T03:23:17.218Z,59.74
2017-01-31T03:25:24.466Z,59.76
2017-01-31T03:27:36.801Z,59.76
2017-01-31T03:29:49.075Z,59.79
2017-01-31T03:32:01.411Z,59.84
2017-01-31T03:34:13.789Z,59.85
2017-01-31T03:36:26.107Z,59.84
2017-01-31T03:38:38.473Z,59.89
2017-01-31T03:40:50.716Z,59.92
2017-01-31T03:42:52.952Z,59.96
2017-01-31T03:45:05.623Z,60
2017-01-31T03:47:18.019Z,60.01
2017-01-31T03:49:30.403Z,60.07
2017-01-31T03:51:37.585Z,60.11
2017-01-31T03:53:49.879Z,60.11
2017-01-31T03:56:02.160Z,60.09
2017-01-31T03:58:14.304Z,60.09
2017-01-31T04:00:26.537Z,60.11
2017-01-31T04:02:38.718Z,60.13
2017-01-31T04:04:50.859Z,60.15
2017-01-31T04:07:03.014Z,60.14
2017-01-31T04:09:15.103Z,60.16
2017-01-31T04:11:27.508Z,60.2
2017-01-31T04:13:34.702Z,60.18
2017-01-31T04:15:46.934Z,60.17
2017-01-31T04:17:54.226Z,60.2
2017-01-31T04:20:06.605Z,60.23
2017-01-31T04:22:19.287Z,60.22
2017-01-31T04:24:31.715Z,60.23
2017-01-31T04:26:44.077Z,60.24
2017-01-31T04:28:56.569Z,60.22
2017-01-31T04:31:08.937Z,60.21
2017-01-31T04:33:21.523Z,60.24
2017-01-31T04:35:33.794Z,60.22
2017-01-31T04:37:46.001Z,60.19
2017-01-31T04:39:58.360Z,60.18
2017-01-31T04:42:10.577Z,60.21
2017-01-31T04:44:22.785Z,60.2
2017-01-31T04:46:34.947Z,60.16
2017-01-31T04:48:47.142Z,60.16
2017-01-31T04:50:59.514Z,60.11
2017-01-31T04:53:06.635Z,60.1
2017-01-31T04:55:18.826Z,60.1
2017-01-31T04:57:26.677Z,60.08
2017-01-31T04:59:39.449Z,60.05
2017-01-31T05:01:51.916Z,60.03
2017-01-31T05:04:04.104Z,60.03
2017-01-31T05:06:16.329Z,60.02
2017-01-31T05:08:28.606Z,60.01
2017-01-31T05:10:30.756Z,60
2017-01-31T05:12:43.180Z,60.05
2017-01-31T05:14:55.399Z,60.07
2017-01-31T05:17:07.697Z,60.11
2017-01-31T05:19:19.953Z,60.15
2017-01-31T05:21:32.291Z,60.15
2017-01-31T05:23:44.462Z,60.15
2017-01-31T05:25:56.718Z,60.2
2017-01-31T05:28:09.053Z,60.23
2017-01-31T05:30:21.331Z,60.25
2017-01-31T05:32:29.145Z,60.25
2017-01-31T05:34:36.961Z,60.23
2017-01-31T05:36:49.167Z,60.29
2017-01-31T05:39:02.390Z,60.27
2017-01-31T05:41:12.887Z,60.28
2017-01-31T05:43:25.192Z,60.27
2017-01-31T05:45:37.443Z,60.28
2017-01-31T05:47:49.666Z,60.25
2017-01-31T05:49:56.968Z,60.24
2017-01-31T05:52:09.411Z,60.28
2017-01-31T05:54:21.727Z,60.25
2017-01-31T05:56:34.032Z,60.25
2017-01-31T05:58:46.341Z,60.29
2017-01-31T06:00:58.612Z,60.31
2017-01-31T06:03:10.755Z,60.32
2017-01-31T06:05:23.020Z,60.38
2017-01-31T06:07:35.556Z,60.39
2017-01-31T06:09:41.650Z,60.41
2017-01-31T06:11:53.875Z,60.43
2017-01-31T06:14:06.102Z,60.46
2017-01-31T06:16:13.328Z,60.46
2017-01-31T06:18:25.607Z,60.45
2017-01-31T06:20:37.765Z,60.47
2017-01-31T06:22:50.110Z,60.47
2017-01-31T06:25:00.691Z,60.51
2017-01-31T06:27:08.072Z,60.54
2017-01-31T06:29:20.547Z,60.58
2017-01-31T06:31:32.837Z,60.57
2017-01-31T06:33:45.022Z,60.57
2017-01-31T06:35:57.302Z,60.58
2017-01-31T06:38:09.617Z,60.61
2017-01-31T06:40:21.983Z,60.61
2017-01-31T06:42:29.691Z,60.58
2017-01-31T06:44:42.244Z,60.59
2017-01-31T06:47:00.766Z,60.6
2017-01-31T06:49:14.886Z,60.54
2017-01-31T06:51:27.152Z,60.51
2017-01-31T06:53:39.421Z,60.52
2017-01-31T06:55:51.692Z,60.52
2017-01-31T06:58:04.014Z,60.52
2017-01-31T07:02:16.878Z,60.46
2017-01-31T07:04:29.387Z,60.49
2017-01-31T07:06:41.593Z,60.48
2017-01-31T07:08:53.863Z,60.43
2017-01-31T07:11:06.253Z,60.38
2017-01-31T07:13:13.604Z,60.37
2017-01-31T07:15:25.979Z,60.39
2017-01-31T07:17:38.511Z,60.36
2017-01-31T07:19:46.264Z,60.36
2017-01-31T07:21:58.498Z,60.41
2017-01-31T07:24:10.758Z,60.37
2017-01-31T07:26:22.985Z,60.27
2017-01-31T07:28:35.139Z,60.22
2017-01-31T07:30:47.281Z,60.14
2017-01-31T07:32:59.768Z,60.2
2017-01-31T07:35:12.236Z,60.24
2017-01-31T07:37:27.863Z,60.32
2017-01-31T07:39:40.282Z,60.34
2017-01-31T07:41:52.844Z,60.35
2017-01-31T07:44:05.072Z,60.33
2017-01-31T07:46:17.476Z,60.34
2017-01-31T07:48:29.639Z,60.36
2017-01-31T07:50:42.524Z,60.34
2017-01-31T07:52:55.445Z,60.27
2017-01-31T07:55:08.013Z,60.13
2017-01-31T07:57:21.193Z,59.91
2017-01-31T07:59:36.624Z,59.75
2017-01-31T08:01:49.157Z,59.6
2017-01-31T08:04:00.551Z,59.73
2017-01-31T08:06:02.763Z,59.83
2017-01-31T08:08:15.174Z,59.85
2017-01-31T08:10:27.324Z,59.84
2017-01-31T08:12:34.618Z,59.7
2017-01-31T08:14:46.840Z,59.52
2017-01-31T08:16:59.101Z,59.72
2017-01-31T08:19:11.362Z,59.59
2017-01-31T08:21:23.633Z,59.39
2017-01-31T08:23:34.176Z,59.28
2017-01-31T08:25:46.343Z,58.96
2017-01-31T08:27:58.950Z,59.05
2017-01-31T08:30:11.617Z,59.19
2017-01-31T08:32:18.987Z,59.15
2017-01-31T08:34:31.285Z,58.99
2017-01-31T08:36:38.581Z,58.76
2017-01-31T08:38:45.880Z,58.71
2017-01-31T08:40:53.313Z,58.8
2017-01-31T08:43:05.539Z,59
2017-01-31T08:45:18.252Z,59.08
2017-01-31T08:47:30.474Z,59.11
2017-01-31T08:49:42.691Z,59.16
2017-01-31T08:51:45.000Z,59.21
2017-01-31T08:53:52.285Z,59.17
2017-01-31T08:56:04.457Z,59.12
2017-01-31T08:58:16.752Z,59.08
2017-01-31T09:00:28.877Z,59.04
2017-01-31T09:02:41.381Z,59.08
2017-01-31T09:04:53.990Z,59.15
2017-01-31T09:07:06.618Z,59.22
2017-01-31T09:09:18.969Z,59.35
2017-01-31T09:11:26.177Z,59.35
2017-01-31T09:13:38.642Z,59.22
2017-01-31T09:15:50.939Z,59.13
2017-01-31T09:18:03.299Z,59.17
2017-01-31T09:20:15.716Z,59.24
2017-01-31T09:22:28.131Z,59.3
2017-01-31T09:24:40.438Z,59.33
2017-01-31T09:26:52.675Z,59.33
2017-01-31T09:29:04.865Z,59.29
2017-01-31T09:31:17.208Z,59.13
2017-01-31T09:33:29.645Z,58.74
2017-01-31T09:35:41.830Z,58.49
2017-01-31T09:37:49.066Z,58.47
2017-01-31T09:40:01.561Z,58.33
2017-01-31T09:42:14.162Z,58.15
2017-01-31T09:44:26.337Z,58.22
2017-01-31T09:46:33.568Z,58.7
2017-01-31T09:48:46.555Z,59.01
2017-01-31T09:50:58.911Z,59.25
2017-01-31T09:53:11.243Z,59.32
2017-01-31T09:55:23.603Z,59.3
2017-01-31T09:57:30.752Z,59.19
2017-01-31T09:59:42.990Z,59.07
2017-01-31T10:01:55.292Z,58.95
2017-01-31T10:04:02.566Z,58.73
2017-01-31T10:06:14.735Z,58.52
2017-01-31T10:08:27.036Z,58.46
2017-01-31T10:10:39.335Z,58.35
2017-01-31T10:12:46.625Z,58.45
2017-01-31T10:14:59.279Z,58.54
2017-01-31T10:17:12.008Z,58.67
2017-01-31T10:19:24.236Z,58.82
2017-01-31T10:21:36.423Z,58.78
2017-01-31T10:23:35.766Z,58.72
2017-01-31T10:25:38.094Z,58.72
2017-01-31T10:27:50.441Z,58.9
2017-01-31T10:30:02.597Z,59
2017-01-31T10:32:14.914Z,59.02
2017-01-31T10:34:27.104Z,58.94
2017-01-31T10:36:34.446Z,58.79
2017-01-31T10:38:46.768Z,58.69
2017-01-31T10:40:59.417Z,58.63
2017-01-31T10:43:11.624Z,58.51
2017-01-31T10:45:24.018Z,58.35
2017-01-31T10:47:36.337Z,58.35
2017-01-31T10:49:43.714Z,58.33
2017-01-31T10:51:56.302Z,58.43
2017-01-31T10:54:09.009Z,58.45
2017-01-31T10:56:21.232Z,58.51
2017-01-31T10:58:28.556Z,58.37
2017-01-31T11:00:40.849Z,58.23
2017-01-31T11:02:54.815Z,58.38
2017-01-31T11:05:03.574Z,58.65
2017-01-31T11:07:14.224Z,58.92
2017-01-31T11:09:29.505Z,59.02
2017-01-31T11:11:43.874Z,58.91
2017-01-31T11:13:57.456Z,58.82
2017-01-31T11:16:10.404Z,58.67
2017-01-31T11:18:23.091Z,58.75
2017-01-31T11:20:35.320Z,58.79
2017-01-31T11:22:48.263Z,58.71
2017-01-31T11:25:01.025Z,58.25
2017-01-31T11:27:16.871Z,57.84
2017-01-31T11:29:31.560Z,57.38
2017-01-31T11:31:39.318Z,56.85
2017-01-31T11:33:53.891Z,56.9
2017-01-31T11:36:06.207Z,57.39
2017-01-31T11:38:18.560Z,57.61
2017-01-31T11:40:33.827Z,57.69
2017-01-31T11:42:41.143Z,58.13
2017-01-31T11:44:53.719Z,58.36
2017-01-31T11:47:01.543Z,58.49
2017-01-31T11:49:14.385Z,58.51
2017-01-31T11:51:22.093Z,58.56
2017-01-31T11:53:34.928Z,58.52
2017-01-31T11:55:43.111Z,58.48
2017-01-31T11:57:50.482Z,58.53
2017-01-31T12:00:02.981Z,58.7
2017-01-31T12:02:15.841Z,59.06
2017-01-31T12:04:28.432Z,59.12
2017-01-31T12:06:37.467Z,59.01
2017-01-31T12:08:50.026Z,59.05
2017-01-31T12:11:02.188Z,59.14
2017-01-31T12:13:14.428Z,59.18
2017-01-31T12:15:26.747Z,59.41
2017-01-31T12:17:39.140Z,59.49
2017-01-31T12:19:51.424Z,59.32
2017-01-31T12:21:56.893Z,59.25
2017-01-31T12:24:09.198Z,59.25
2017-01-31T12:26:21.541Z,59.34
2017-01-31T12:28:33.759Z,59.35
2017-01-31T12:30:46.033Z,59.5
2017-01-31T12:32:53.307Z,59.7
2017-01-31T12:35:05.580Z,59.62
2017-01-31T12:37:18.179Z,59.67
2017-01-31T12:39:30.506Z,59.83
2017-01-31T12:41:42.819Z,59.9
2017-01-31T12:43:55.113Z,60.03
2017-01-31T12:46:02.341Z,60.11
2017-01-31T12:48:14.682Z,60.24
2017-01-31T12:50:27.087Z,60.36
2017-01-31T12:52:39.500Z,60.46
2017-01-31T12:54:51.711Z,60.4
2017-01-31T12:57:03.905Z,60.46
2017-01-31T12:59:16.389Z,60.53
2017-01-31T13:01:28.684Z,60.59
2017-01-31T13:03:40.931Z,60.53
2017-01-31T13:05:53.301Z,60.59
2017-01-31T13:08:00.623Z,60.6
2017-01-31T13:10:12.918Z,60.62
2017-01-31T13:12:25.296Z,60.59
2017-01-31T13:14:27.652Z,60.65
2017-01-31T13:16:40.010Z,60.71
2017-01-31T13:18:52.209Z,60.68
2017-01-31T13:21:04.981Z,60.68
2017-01-31T13:23:17.299Z,60.68
2017-01-31T13:25:29.720Z,60.66
2017-01-31T13:27:41.856Z,60.81
2017-01-31T13:29:54.308Z,60.96
2017-01-31T13:31:56.607Z,61.08
2017-01-31T13:34:08.861Z,61.13
2017-01-31T13:36:21.066Z,61
2017-01-31T13:38:31.621Z,60.9
2017-01-31T13:40:43.857Z,60.86
2017-01-31T13:43:24.067Z,60.95
2017-01-31T13:46:17.204Z,61.02
2017-01-31T13:48:29.938Z,60.92
2017-01-31T13:50:42.161Z,60.91
2017-01-31T13:52:49.977Z,60.79
2017-01-31T13:54:57.341Z,60.67
2017-01-31T13:57:09.789Z,60.7
2017-01-31T13:59:22.095Z,60.7
2017-01-31T14:01:34.319Z,60.64
2017-01-31T14:03:41.657Z,60.51
2017-01-31T14:05:53.962Z,60.62
2017-01-31T14:08:06.299Z,60.7
2017-01-31T14:10:18.878Z,60.73
2017-01-31T14:12:31.260Z,60.73
2017-01-31T14:14:43.403Z,60.72
2017-01-31T14:16:55.660Z,60.68
2017-01-31T14:19:03.022Z,60.7
2017-01-31T14:21:15.328Z,60.76
2017-01-31T14:23:27.786Z,60.81
2017-01-31T14:25:35.200Z,60.92
2017-01-31T14:27:42.637Z,61.02
2017-01-31T14:29:54.845Z,61.03
2017-01-31T14:32:07.117Z,61.1
2017-01-31T14:34:19.446Z,61.04
2017-01-31T14:36:31.755Z,60.83
2017-01-31T14:38:44.897Z,60.79
2017-01-31T14:40:57.892Z,60.68
2017-01-31T14:43:10.484Z,60.63
2017-01-31T14:45:22.738Z,60.66
2017-01-31T14:47:34.901Z,60.75
2017-01-31T14:49:47.144Z,60.86
2017-01-31T14:51:59.584Z,60.9
2017-01-31T14:54:11.910Z,60.96
2017-01-31T14:56:24.172Z,61.07
2017-01-31T14:58:36.459Z,61.27
2017-01-31T15:00:48.893Z,61.34
2017-01-31T15:03:01.527Z,61.3
2017-01-31T15:05:13.859Z,61.33
2017-01-31T15:07:26.485Z,61.36
2017-01-31T15:09:38.766Z,61.42
2017-01-31T15:11:51.020Z,61.54
2017-01-31T15:14:03.254Z,61.6
2017-01-31T15:16:15.574Z,61.67
2017-01-31T15:18:27.986Z,61.75
2017-01-31T15:20:38.462Z,61.82
2017-01-31T15:22:50.635Z,61.87
2017-01-31T15:25:02.880Z,61.9
2017-01-31T15:27:15.077Z,61.96
2017-01-31T15:29:27.584Z,61.95
2017-01-31T15:33:48.928Z,61.91
2017-01-31T15:36:01.367Z,61.96
2017-01-31T15:38:13.772Z,62.01
2017-01-31T15:40:26.294Z,61.98
2017-01-31T15:42:38.542Z,61.97
2017-01-31T15:44:50.816Z,61.98
2017-01-31T15:47:03.332Z,62.03
2017-01-31T15:49:15.576Z,62.07
2017-01-31T15:51:27.884Z,62.1
2017-01-31T15:53:40.094Z,62.1
2017-01-31T15:55:52.321Z,62.11
2017-01-31T15:58:04.602Z,62.14
2017-01-31T16:00:16.820Z,62.16
2017-01-31T16:02:29.036Z,62.16
2017-01-31T16:04:41.330Z,62.1
2017-01-31T16:06:53.627Z,62.15
2017-01-31T16:09:05.888Z,62.19
2017-01-31T16:11:18.249Z,62.21
2017-01-31T16:13:31.150Z,62.22
2017-01-31T16:15:43.336Z,62.24
2017-01-31T16:17:55.689Z,62.22
2017-01-31T16:20:08.079Z,62.22
2017-01-31T16:22:20.530Z,62.24
2017-01-31T16:24:32.893Z,62.3
2017-01-31T16:26:40.320Z,62.33
2017-01-31T16:28:52.633Z,62.32
2017-01-31T16:31:26.073Z,62.25
2017-01-31T16:33:38.339Z,62.26
2017-01-31T16:35:45.656Z,62.33
2017-01-31T16:37:57.946Z,62.36
2017-01-31T16:40:10.407Z,62.4
2017-01-31T16:42:22.762Z,62.38
2017-01-31T16:44:34.977Z,62.36
2017-01-31T16:46:47.530Z,62.33
2017-01-31T16:49:00.164Z,62.33
2017-01-31T16:51:12.598Z,62.27
2017-01-31T16:53:20.103Z,62.26
2017-01-31T16:55:33.004Z,62.29
2017-01-31T16:57:45.420Z,62.29
2017-01-31T16:59:57.769Z,62.25
2017-01-31T17:02:10.020Z,62.23
2017-01-31T17:04:22.456Z,62.21
2017-01-31T17:06:29.881Z,62.18
2017-01-31T17:08:42.358Z,62.17
2017-01-31T17:10:54.645Z,62.19
2017-01-31T17:13:06.986Z,62.22
2017-01-31T17:15:19.193Z,62.27
2017-01-31T17:17:26.451Z,62.29
2017-01-31T17:19:33.710Z,62.29
2017-01-31T17:21:46.063Z,62.32
2017-01-31T17:23:58.324Z,62.29
2017-01-31T17:26:10.684Z,62.3
2017-01-31T17:28:18.091Z,62.29
2017-01-31T17:30:30.877Z,62.25
2017-01-31T17:32:43.069Z,62.29
2017-01-31T17:34:55.241Z,62.37
2017-01-31T17:37:07.460Z,62.4
2017-01-31T17:39:19.692Z,62.38
2017-01-31T17:41:31.867Z,62.41
2017-01-31T17:43:44.285Z,62.39
2017-01-31T17:45:46.778Z,62.37
2017-01-31T17:47:59.154Z,62.32
2017-01-31T17:52:22.087Z,62.41
2017-01-31T17:54:29.430Z,62.37
2017-01-31T17:56:36.880Z,62.35
2017-01-31T17:58:49.546Z,62.37
2017-01-31T18:01:01.696Z,62.33
2017-01-31T18:03:13.927Z,62.29
2017-01-31T18:05:26.137Z,62.34
2017-01-31T18:07:53.429Z,62.39
2017-01-31T18:10:21.727Z,62.36
2017-01-31T18:12:51.298Z,62.32
2017-01-31T18:15:24.204Z,62.31
2017-01-31T18:17:53.987Z,62.3
2017-01-31T18:20:48.346Z,62.3
2017-01-31T18:23:44.186Z,62.32
2017-01-31T18:26:39.453Z,62.34
2017-01-31T18:29:34.294Z,62.33
2017-01-31T18:32:29.849Z,62.32
2017-01-31T18:35:26.274Z,62.27
2017-01-31T18:38:17.185Z,62.32
2017-01-31T18:41:11.765Z,62.35
2017-01-31T18:44:07.634Z,62.29
2017-01-31T18:47:04.390Z,62.31
2017-01-31T18:49:59.664Z,62.31
2017-01-31T18:52:52.898Z,62.36
2017-01-31T18:55:49.258Z,62.39
2017-01-31T18:58:42.272Z,62.41
2017-01-31T19:01:36.697Z,62.42
2017-01-31T19:04:29.769Z,62.47
2017-01-31T19:07:23.719Z,62.38
2017-01-31T19:10:18.450Z,62.34
2017-01-31T19:13:12.487Z,62.29
2017-01-31T19:16:08.815Z,62.47
2017-01-31T19:19:02.817Z,62.54
2017-01-31T19:22:07.773Z,62.46
2017-01-31T19:25:06.870Z,62.48
2017-01-31T19:28:07.973Z,62.52
2017-01-31T19:31:09.014Z,62.47
2017-01-31T19:34:05.179Z,62.49
2017-01-31T19:37:05.309Z,62.48
2017-01-31T19:40:05.487Z,62.5
2017-01-31T19:43:09.762Z,62.49
2017-01-31T19:49:03.078Z,62.47
2017-01-31T19:52:04.459Z,62.6
2017-01-31T19:55:02.015Z,62.58
2017-01-31T19:57:59.600Z,62.54
2017-01-31T20:01:04.891Z,62.54
2017-01-31T20:04:09.150Z,62.52
2017-01-31T20:07:09.042Z,62.49
2017-01-31T20:10:06.963Z,62.48
2017-01-31T20:12:57.416Z,62.45
2017-01-31T20:15:30.643Z,62.42
2017-01-31T20:17:40.181Z,62.45
2017-01-31T20:19:53.659Z,62.45
2017-01-31T20:22:06.162Z,62.52
2017-01-31T20:24:19.214Z,62.54
2017-01-31T20:26:31.637Z,62.5
2017-01-31T20:28:44.538Z,62.52
2017-01-31T20:30:57.029Z,62.49
2017-01-31T20:33:09.739Z,62.46
2017-01-31T20:35:22.825Z,62.48
2017-01-31T20:37:56.494Z,62.5
2017-01-31T20:40:13.803Z,62.47
2017-01-31T20:42:26.063Z,62.41
2017-01-31T20:44:38.290Z,62.61
2017-01-31T20:46:40.617Z,62.87
2017-01-31T20:48:48.213Z,63
2017-01-31T20:51:00.569Z,63.07
2017-01-31T20:53:13.032Z,63.08
2017-01-31T20:55:21.669Z,63.13
2017-01-31T20:57:29.116Z,63.19
2017-01-31T20:59:41.488Z,63.26
2017-01-31T21:01:52.240Z,63.28
2017-01-31T21:04:04.550Z,63.29
2017-01-31T21:06:11.986Z,63.28
2017-01-31T21:08:24.330Z,63.31
2017-01-31T21:10:37.207Z,63.33
2017-01-31T21:12:49.497Z,63.35
2017-01-31T21:15:01.816Z,63.36
2017-01-31T21:17:14.227Z,63.35
2017-01-31T21:19:26.562Z,63.37
2017-01-31T21:21:38.908Z,63.4
2017-01-31T21:23:51.261Z,63.42
2017-01-31T21:26:03.485Z,63.4
2017-01-31T21:28:15.873Z,63.41
2017-01-31T21:30:28.570Z,63.42
2017-01-31T21:32:41.041Z,63.4
2017-01-31T21:34:53.446Z,63.38
2017-01-31T21:37:07.450Z,63.34
2017-01-31T21:39:20.037Z,63.28
2017-01-31T21:41:32.345Z,63.25
2017-01-31T21:43:44.657Z,63.26
2017-01-31T21:45:56.844Z,63.3
2017-01-31T21:48:09.115Z,63.35
2017-01-31T21:50:21.549Z,63.4
2017-01-31T21:52:33.890Z,63.41
2017-01-31T21:54:41.336Z,63.42
2017-01-31T21:57:05.116Z,63.44
2017-01-31T21:59:52.550Z,63.44
2017-01-31T22:02:34.444Z,63.42
2017-01-31T22:04:57.145Z,63.43
2017-01-31T22:07:18.554Z,63.45
2017-01-31T22:09:40.282Z,63.46
2017-01-31T22:11:59.879Z,63.48
2017-01-31T22:14:22.807Z,63.45
2017-01-31T22:16:49.852Z,63.44
2017-01-31T22:19:16.036Z,63.46
2017-01-31T22:21:42.232Z,63.46
2017-01-31T22:24:08.884Z,63.43
2017-01-31T22:26:36.526Z,63.42
2017-01-31T22:29:03.486Z,63.41
2017-01-31T22:31:29.759Z,63.4
2017-01-31T22:33:57.429Z,63.36
2017-01-31T22:36:27.810Z,63.33
2017-01-31T22:38:56.926Z,63.31
2017-01-31T22:41:25.518Z,63.3
2017-01-31T22:43:59.426Z,63.28
2017-01-31T22:46:34.700Z,63.21
2017-01-31T22:49:15.177Z,63.1
2017-01-31T22:51:48.158Z,63.06
2017-01-31T22:54:09.945Z,63.03
2017-01-31T22:56:42.243Z,63.05
2017-01-31T22:59:12.927Z,63.04
2017-01-31T23:01:39.699Z,63.01
2017-01-31T23:04:02.942Z,63.06
2017-01-31T23:06:30.005Z,63.07
2017-01-31T23:09:00.664Z,63.06
2017-01-31T23:11:32.924Z,63.08
2017-01-31T23:14:06.818Z,63.08
2017-01-31T23:16:34.573Z,63.03
2017-01-31T23:19:02.435Z,62.97
2017-01-31T23:21:31.235Z,62.88
2017-01-31T23:23:55.017Z,62.88
2017-01-31T23:26:26.102Z,62.89
2017-01-31T23:28:54.244Z,62.91
2017-01-31T23:31:21.400Z,62.93
2017-01-31T23:33:46.127Z,62.95
2017-01-31T23:36:14.575Z,62.93
2017-01-31T23:38:43.175Z,62.89
2017-01-31T23:41:14.133Z,62.84
2017-01-31T23:43:44.048Z,62.88
2017-01-31T23:46:15.361Z,62.81
2017-01-31T23:48:32.530Z,62.73
2017-01-31T23:50:39.796Z,62.7
2017-01-31T23:52:52.591Z,62.71
2017-01-31T23:55:05.025Z,62.72
2017-01-31T23:57:17.383Z,62.73
2017-01-31T23:59:29.703Z,62.73
